sensor_id;sensor_type;location;lat;lon;timestamp;P1;durP1;ratioP1;P2;durP2;ratioP2
2538;SDS011;1280;49.760;9.664;2023-04-20T00:00:39;11.57;;;6.97;;
2538;SDS011;1280;49.760;9.664;2023-04-20T00:03:13;17.80;;;7.90;;
2538;SDS011;1280;49.760;9.664;2023-04-20T00:05:52;13.77;;;6.80;;
2538;SDS011;1280;49.760;9.664;2023-04-20T00:08:30;9.50;;;5.95;;
2538;SDS011;1280;49.760;9.664;2023-04-20T00:11:15;9.23;;;5.90;;
2538;SDS011;1280;49.760;9.664;2023-04-20T00:13:43;11.43;;;6.00;;
2538;SDS011;1280;49.760;9.664;2023-04-20T00:16:33;12.20;;;6.13;;
2538;SDS011;1280;49.760;9.664;2023-04-20T00:19:06;9.47;;;5.73;;
2538;SDS011;1280;49.760;9.664;2023-04-20T00:21:41;10.87;;;6.97;;
2538;SDS011;1280;49.760;9.664;2023-04-20T00:24:20;11.70;;;6.80;;
2538;SDS011;1280;49.760;9.664;2023-04-20T00:26:55;10.30;;;5.83;;
2538;SDS011;1280;49.760;9.664;2023-04-20T00:29:36;10.20;;;6.23;;
2538;SDS011;1280;49.760;9.664;2023-04-20T00:32:24;11.60;;;5.97;;
2538;SDS011;1280;49.760;9.664;2023-04-20T00:34:58;12.40;;;6.40;;
2538;SDS011;1280;49.760;9.664;2023-04-20T00:37:30;11.77;;;6.23;;
2538;SDS011;1280;49.760;9.664;2023-04-20T00:40:10;14.87;;;7.60;;
2538;SDS011;1280;49.760;9.664;2023-04-20T00:42:48;11.33;;;5.90;;
2538;SDS011;1280;49.760;9.664;2023-04-20T00:45:24;8.83;;;5.60;;
2538;SDS011;1280;49.760;9.664;2023-04-20T00:48:08;9.83;;;5.20;;
2538;SDS011;1280;49.760;9.664;2023-04-20T00:50:41;10.47;;;5.70;;
2538;SDS011;1280;49.760;9.664;2023-04-20T00:53:18;9.30;;;5.90;;
2538;SDS011;1280;49.760;9.664;2023-04-20T00:55:55;12.30;;;5.77;;
2538;SDS011;1280;49.760;9.664;2023-04-20T00:58:33;12.43;;;6.30;;
2538;SDS011;1280;49.760;9.664;2023-04-20T01:01:12;9.97;;;6.13;;
2538;SDS011;1280;49.760;9.664;2023-04-20T01:03:52;11.93;;;6.67;;
2538;SDS011;1280;49.760;9.664;2023-04-20T01:06:29;12.77;;;6.80;;
2538;SDS011;1280;49.760;9.664;2023-04-20T01:09:06;12.03;;;6.40;;
2538;SDS011;1280;49.760;9.664;2023-04-20T01:11:41;9.67;;;5.50;;
2538;SDS011;1280;49.760;9.664;2023-04-20T01:14:15;11.27;;;5.90;;
2538;SDS011;1280;49.760;9.664;2023-04-20T01:16:51;11.30;;;6.77;;
2538;SDS011;1280;49.760;9.664;2023-04-20T01:19:27;10.57;;;6.38;;
2538;SDS011;1280;49.760;9.664;2023-04-20T01:22:01;17.40;;;7.13;;
2538;SDS011;1280;49.760;9.664;2023-04-20T01:24:39;13.38;;;8.18;;
2538;SDS011;1280;49.760;9.664;2023-04-20T01:27:19;8.80;;;6.00;;
2538;SDS011;1280;49.760;9.664;2023-04-20T01:29:51;13.10;;;6.03;;
2538;SDS011;1280;49.760;9.664;2023-04-20T01:32:28;10.40;;;6.97;;
2538;SDS011;1280;49.760;9.664;2023-04-20T01:35:05;11.37;;;7.27;;
2538;SDS011;1280;49.760;9.664;2023-04-20T01:37:40;10.10;;;7.13;;
2538;SDS011;1280;49.760;9.664;2023-04-20T01:40:14;11.40;;;5.80;;
2538;SDS011;1280;49.760;9.664;2023-04-20T01:42:44;8.40;;;5.80;;
2538;SDS011;1280;49.760;9.664;2023-04-20T01:45:23;9.93;;;6.50;;
2538;SDS011;1280;49.760;9.664;2023-04-20T01:48:00;10.30;;;6.37;;
2538;SDS011;1280;49.760;9.664;2023-04-20T01:50:31;10.63;;;6.30;;
2538;SDS011;1280;49.760;9.664;2023-04-20T01:53:06;16.00;;;7.80;;
2538;SDS011;1280;49.760;9.664;2023-04-20T01:55:54;12.33;;;7.03;;
2538;SDS011;1280;49.760;9.664;2023-04-20T01:58:27;12.43;;;7.90;;
2538;SDS011;1280;49.760;9.664;2023-04-20T02:00:59;15.20;;;9.00;;
2538;SDS011;1280;49.760;9.664;2023-04-20T02:03:33;14.13;;;8.33;;
2538;SDS011;1280;49.760;9.664;2023-04-20T02:06:22;16.27;;;8.60;;
2538;SDS011;1280;49.760;9.664;2023-04-20T02:09:01;16.40;;;8.13;;
2538;SDS011;1280;49.760;9.664;2023-04-20T02:11:54;15.87;;;7.70;;
2538;SDS011;1280;49.760;9.664;2023-04-20T02:14:27;14.47;;;10.00;;
2538;SDS011;1280;49.760;9.664;2023-04-20T02:17:10;16.10;;;8.40;;
2538;SDS011;1280;49.760;9.664;2023-04-20T02:19:47;15.63;;;8.20;;
2538;SDS011;1280;49.760;9.664;2023-04-20T02:22:27;13.43;;;7.70;;
2538;SDS011;1280;49.760;9.664;2023-04-20T02:25:09;21.13;;;10.30;;
2538;SDS011;1280;49.760;9.664;2023-04-20T02:27:55;13.97;;;7.23;;
2538;SDS011;1280;49.760;9.664;2023-04-20T02:30:33;12.27;;;7.33;;
2538;SDS011;1280;49.760;9.664;2023-04-20T02:33:03;18.90;;;10.83;;
2538;SDS011;1280;49.760;9.664;2023-04-20T02:35:46;19.47;;;11.97;;
2538;SDS011;1280;49.760;9.664;2023-04-20T02:38:16;13.00;;;8.07;;
2538;SDS011;1280;49.760;9.664;2023-04-20T02:40:47;14.07;;;7.13;;
2538;SDS011;1280;49.760;9.664;2023-04-20T02:43:25;12.63;;;6.83;;
2538;SDS011;1280;49.760;9.664;2023-04-20T02:45:58;11.83;;;7.53;;
2538;SDS011;1280;49.760;9.664;2023-04-20T02:48:44;11.40;;;7.27;;
2538;SDS011;1280;49.760;9.664;2023-04-20T02:51:18;12.30;;;7.47;;
2538;SDS011;1280;49.760;9.664;2023-04-20T02:53:50;14.37;;;8.20;;
2538;SDS011;1280;49.760;9.664;2023-04-20T02:56:28;19.20;;;8.90;;
2538;SDS011;1280;49.760;9.664;2023-04-20T02:59:14;13.30;;;7.80;;
2538;SDS011;1280;49.760;9.664;2023-04-20T03:02:05;11.50;;;8.23;;
2538;SDS011;1280;49.760;9.664;2023-04-20T03:04:39;15.30;;;8.60;;
2538;SDS011;1280;49.760;9.664;2023-04-20T03:07:19;16.13;;;8.15;;
2538;SDS011;1280;49.760;9.664;2023-04-20T03:09:52;17.33;;;9.07;;
2538;SDS011;1280;49.760;9.664;2023-04-20T03:12:47;11.67;;;8.50;;
2538;SDS011;1280;49.760;9.664;2023-04-20T03:15:33;16.83;;;9.50;;
2538;SDS011;1280;49.760;9.664;2023-04-20T03:18:37;15.63;;;9.00;;
2538;SDS011;1280;49.760;9.664;2023-04-20T03:21:20;17.90;;;8.10;;
2538;SDS011;1280;49.760;9.664;2023-04-20T03:23:52;15.97;;;8.03;;
2538;SDS011;1280;49.760;9.664;2023-04-20T03:26:28;12.40;;;7.70;;
2538;SDS011;1280;49.760;9.664;2023-04-20T03:29:14;12.83;;;8.00;;
2538;SDS011;1280;49.760;9.664;2023-04-20T03:31:49;14.00;;;7.63;;
2538;SDS011;1280;49.760;9.664;2023-04-20T03:34:26;12.80;;;7.87;;
2538;SDS011;1280;49.760;9.664;2023-04-20T03:36:57;15.80;;;8.13;;
2538;SDS011;1280;49.760;9.664;2023-04-20T03:39:46;14.67;;;8.33;;
2538;SDS011;1280;49.760;9.664;2023-04-20T03:42:23;10.10;;;7.33;;
2538;SDS011;1280;49.760;9.664;2023-04-20T03:45:05;11.73;;;7.23;;
2538;SDS011;1280;49.760;9.664;2023-04-20T03:47:39;13.20;;;8.30;;
2538;SDS011;1280;49.760;9.664;2023-04-20T03:50:13;15.37;;;9.03;;
2538;SDS011;1280;49.760;9.664;2023-04-20T03:52:44;18.43;;;10.53;;
2538;SDS011;1280;49.760;9.664;2023-04-20T03:55:21;17.93;;;9.33;;
2538;SDS011;1280;49.760;9.664;2023-04-20T03:58:03;15.80;;;9.17;;
2538;SDS011;1280;49.760;9.664;2023-04-20T04:00:51;13.00;;;8.80;;
2538;SDS011;1280;49.760;9.664;2023-04-20T04:03:43;17.50;;;8.77;;
2538;SDS011;1280;49.760;9.664;2023-04-20T04:06:18;15.20;;;10.20;;
2538;SDS011;1280;49.760;9.664;2023-04-20T04:08:49;14.23;;;8.57;;
2538;SDS011;1280;49.760;9.664;2023-04-20T04:11:20;10.87;;;7.80;;
2538;SDS011;1280;49.760;9.664;2023-04-20T04:13:56;13.63;;;8.77;;
2538;SDS011;1280;49.760;9.664;2023-04-20T04:16:36;14.48;;;8.38;;
2538;SDS011;1280;49.760;9.664;2023-04-20T04:19:16;16.27;;;10.50;;
2538;SDS011;1280;49.760;9.664;2023-04-20T04:21:46;15.07;;;9.10;;
2538;SDS011;1280;49.760;9.664;2023-04-20T04:24:17;15.10;;;9.05;;
2538;SDS011;1280;49.760;9.664;2023-04-20T04:27:07;15.03;;;9.13;;
2538;SDS011;1280;49.760;9.664;2023-04-20T04:29:46;14.63;;;8.77;;
2538;SDS011;1280;49.760;9.664;2023-04-20T04:32:20;13.60;;;8.43;;
2538;SDS011;1280;49.760;9.664;2023-04-20T04:34:53;14.83;;;9.30;;
2538;SDS011;1280;49.760;9.664;2023-04-20T04:37:31;16.10;;;9.87;;
2538;SDS011;1280;49.760;9.664;2023-04-20T04:40:07;19.57;;;12.20;;
2538;SDS011;1280;49.760;9.664;2023-04-20T04:42:43;21.03;;;11.90;;
2538;SDS011;1280;49.760;9.664;2023-04-20T04:45:23;13.63;;;9.40;;
2538;SDS011;1280;49.760;9.664;2023-04-20T04:47:56;21.93;;;12.10;;
2538;SDS011;1280;49.760;9.664;2023-04-20T04:50:32;32.67;;;16.80;;
2538;SDS011;1280;49.760;9.664;2023-04-20T04:53:07;22.43;;;13.37;;
2538;SDS011;1280;49.760;9.664;2023-04-20T04:55:38;25.63;;;12.77;;
2538;SDS011;1280;49.760;9.664;2023-04-20T04:58:14;26.03;;;14.83;;
2538;SDS011;1280;49.760;9.664;2023-04-20T05:00:46;22.37;;;13.10;;
2538;SDS011;1280;49.760;9.664;2023-04-20T05:03:18;28.50;;;15.23;;
2538;SDS011;1280;49.760;9.664;2023-04-20T05:06:07;19.80;;;12.00;;
2538;SDS011;1280;49.760;9.664;2023-04-20T05:08:43;15.30;;;8.93;;
2538;SDS011;1280;49.760;9.664;2023-04-20T05:11:18;19.07;;;9.37;;
2538;SDS011;1280;49.760;9.664;2023-04-20T05:13:58;20.00;;;9.80;;
2538;SDS011;1280;49.760;9.664;2023-04-20T05:16:30;13.10;;;9.03;;
2538;SDS011;1280;49.760;9.664;2023-04-20T05:19:02;16.47;;;9.87;;
2538;SDS011;1280;49.760;9.664;2023-04-20T05:21:41;14.53;;;10.10;;
2538;SDS011;1280;49.760;9.664;2023-04-20T05:24:13;17.50;;;8.93;;
2538;SDS011;1280;49.760;9.664;2023-04-20T05:26:47;15.00;;;9.20;;
2538;SDS011;1280;49.760;9.664;2023-04-20T05:29:18;17.83;;;9.47;;
2538;SDS011;1280;49.760;9.664;2023-04-20T05:31:49;17.87;;;10.37;;
2538;SDS011;1280;49.760;9.664;2023-04-20T05:34:27;15.87;;;10.70;;
2538;SDS011;1280;49.760;9.664;2023-04-20T05:37:09;14.73;;;9.30;;
2538;SDS011;1280;49.760;9.664;2023-04-20T05:39:45;14.33;;;9.43;;
2538;SDS011;1280;49.760;9.664;2023-04-20T05:42:18;17.83;;;11.27;;
2538;SDS011;1280;49.760;9.664;2023-04-20T05:44:54;18.37;;;10.37;;
2538;SDS011;1280;49.760;9.664;2023-04-20T05:47:34;15.00;;;9.40;;
2538;SDS011;1280;49.760;9.664;2023-04-20T05:50:10;13.00;;;9.83;;
2538;SDS011;1280;49.760;9.664;2023-04-20T05:52:50;14.47;;;10.20;;
2538;SDS011;1280;49.760;9.664;2023-04-20T05:55:23;16.47;;;10.80;;
2538;SDS011;1280;49.760;9.664;2023-04-20T05:58:01;15.27;;;9.73;;
2538;SDS011;1280;49.760;9.664;2023-04-20T06:00:33;13.40;;;9.27;;
2538;SDS011;1280;49.760;9.664;2023-04-20T06:03:09;13.70;;;9.43;;
2538;SDS011;1280;49.760;9.664;2023-04-20T06:05:43;13.13;;;9.60;;
2538;SDS011;1280;49.760;9.664;2023-04-20T06:08:25;17.50;;;10.90;;
2538;SDS011;1280;49.760;9.664;2023-04-20T06:11:02;15.70;;;10.83;;
2538;SDS011;1280;49.760;9.664;2023-04-20T06:13:32;16.20;;;11.70;;
2538;SDS011;1280;49.760;9.664;2023-04-20T06:16:07;16.53;;;11.67;;
2538;SDS011;1280;49.760;9.664;2023-04-20T06:18:49;20.40;;;12.60;;
2538;SDS011;1280;49.760;9.664;2023-04-20T06:21:20;21.20;;;12.17;;
2538;SDS011;1280;49.760;9.664;2023-04-20T06:23:59;18.53;;;12.67;;
2538;SDS011;1280;49.760;9.664;2023-04-20T06:26:31;16.10;;;10.90;;
2538;SDS011;1280;49.760;9.664;2023-04-20T06:29:03;16.60;;;10.47;;
2538;SDS011;1280;49.760;9.664;2023-04-20T06:31:34;17.80;;;11.23;;
2538;SDS011;1280;49.760;9.664;2023-04-20T06:34:04;15.80;;;11.57;;
2538;SDS011;1280;49.760;9.664;2023-04-20T06:36:34;15.90;;;10.57;;
2538;SDS011;1280;49.760;9.664;2023-04-20T06:39:14;16.80;;;11.10;;
2538;SDS011;1280;49.760;9.664;2023-04-20T06:41:47;19.07;;;9.83;;
2538;SDS011;1280;49.760;9.664;2023-04-20T06:44:22;18.90;;;11.60;;
2538;SDS011;1280;49.760;9.664;2023-04-20T06:47:00;18.87;;;12.17;;
2538;SDS011;1280;49.760;9.664;2023-04-20T06:49:32;17.20;;;11.53;;
2538;SDS011;1280;49.760;9.664;2023-04-20T06:52:09;17.60;;;12.80;;
2538;SDS011;1280;49.760;9.664;2023-04-20T06:55:06;18.37;;;11.20;;
2538;SDS011;1280;49.760;9.664;2023-04-20T06:57:42;15.10;;;9.87;;
2538;SDS011;1280;49.760;9.664;2023-04-20T07:00:18;20.70;;;10.27;;
2538;SDS011;1280;49.760;9.664;2023-04-20T07:02:58;15.83;;;11.60;;
2538;SDS011;1280;49.760;9.664;2023-04-20T07:05:29;16.43;;;10.37;;
2538;SDS011;1280;49.760;9.664;2023-04-20T07:08:01;14.23;;;9.70;;
2538;SDS011;1280;49.760;9.664;2023-04-20T07:10:45;17.30;;;11.20;;
2538;SDS011;1280;49.760;9.664;2023-04-20T07:13:18;14.73;;;11.03;;
2538;SDS011;1280;49.760;9.664;2023-04-20T07:15:59;16.73;;;10.77;;
2538;SDS011;1280;49.760;9.664;2023-04-20T07:18:30;30.13;;;13.07;;
2538;SDS011;1280;49.760;9.664;2023-04-20T07:21:01;23.63;;;15.00;;
2538;SDS011;1280;49.760;9.664;2023-04-20T07:23:37;19.83;;;11.63;;
2538;SDS011;1280;49.760;9.664;2023-04-20T07:26:16;20.77;;;12.53;;
2538;SDS011;1280;49.760;9.664;2023-04-20T07:28:49;15.33;;;11.27;;
2538;SDS011;1280;49.760;9.664;2023-04-20T07:31:28;20.80;;;13.33;;
2538;SDS011;1280;49.760;9.664;2023-04-20T07:34:01;24.40;;;13.70;;
2538;SDS011;1280;49.760;9.664;2023-04-20T07:36:35;27.00;;;14.60;;
2538;SDS011;1280;49.760;9.664;2023-04-20T07:39:05;17.50;;;13.00;;
2538;SDS011;1280;49.760;9.664;2023-04-20T07:41:46;17.53;;;11.10;;
2538;SDS011;1280;49.760;9.664;2023-04-20T07:44:20;17.67;;;10.80;;
2538;SDS011;1280;49.760;9.664;2023-04-20T07:47:01;16.93;;;12.70;;
2538;SDS011;1280;49.760;9.664;2023-04-20T07:49:35;15.87;;;10.90;;
2538;SDS011;1280;49.760;9.664;2023-04-20T07:52:08;15.60;;;10.87;;
2538;SDS011;1280;49.760;9.664;2023-04-20T07:54:42;17.10;;;10.73;;
2538;SDS011;1280;49.760;9.664;2023-04-20T07:57:16;18.97;;;11.73;;
2538;SDS011;1280;49.760;9.664;2023-04-20T07:59:54;13.80;;;10.50;;
2538;SDS011;1280;49.760;9.664;2023-04-20T08:02:49;18.87;;;11.97;;
2538;SDS011;1280;49.760;9.664;2023-04-20T08:05:23;16.50;;;11.87;;
2538;SDS011;1280;49.760;9.664;2023-04-20T08:08:01;16.10;;;11.13;;
2538;SDS011;1280;49.760;9.664;2023-04-20T08:10:39;16.47;;;12.27;;
2538;SDS011;1280;49.760;9.664;2023-04-20T08:13:20;16.47;;;12.03;;
2538;SDS011;1280;49.760;9.664;2023-04-20T08:15:49;14.40;;;11.67;;
2538;SDS011;1280;49.760;9.664;2023-04-20T08:18:23;14.00;;;11.00;;
2538;SDS011;1280;49.760;9.664;2023-04-20T08:21:00;15.43;;;11.20;;
2538;SDS011;1280;49.760;9.664;2023-04-20T08:23:31;21.30;;;14.50;;
2538;SDS011;1280;49.760;9.664;2023-04-20T08:26:04;17.70;;;11.30;;
2538;SDS011;1280;49.760;9.664;2023-04-20T08:28:41;14.73;;;10.83;;
2538;SDS011;1280;49.760;9.664;2023-04-20T08:31:15;16.07;;;10.60;;
2538;SDS011;1280;49.760;9.664;2023-04-20T08:33:54;17.50;;;12.20;;
2538;SDS011;1280;49.760;9.664;2023-04-20T08:36:29;16.53;;;11.00;;
2538;SDS011;1280;49.760;9.664;2023-04-20T08:39:07;15.63;;;9.90;;
2538;SDS011;1280;49.760;9.664;2023-04-20T08:41:41;18.20;;;11.10;;
2538;SDS011;1280;49.760;9.664;2023-04-20T08:44:14;21.60;;;11.90;;
2538;SDS011;1280;49.760;9.664;2023-04-20T08:46:47;16.00;;;10.80;;
2538;SDS011;1280;49.760;9.664;2023-04-20T08:49:26;15.60;;;10.90;;
2538;SDS011;1280;49.760;9.664;2023-04-20T08:52:05;17.67;;;11.50;;
2538;SDS011;1280;49.760;9.664;2023-04-20T08:54:42;18.17;;;11.60;;
2538;SDS011;1280;49.760;9.664;2023-04-20T08:57:23;16.30;;;11.67;;
2538;SDS011;1280;49.760;9.664;2023-04-20T08:59:58;18.03;;;11.17;;
2538;SDS011;1280;49.760;9.664;2023-04-20T09:02:28;17.47;;;11.83;;
2538;SDS011;1280;49.760;9.664;2023-04-20T09:05:04;15.57;;;11.10;;
2538;SDS011;1280;49.760;9.664;2023-04-20T09:07:34;17.97;;;12.03;;
2538;SDS011;1280;49.760;9.664;2023-04-20T09:10:08;16.30;;;10.23;;
2538;SDS011;1280;49.760;9.664;2023-04-20T09:12:44;14.17;;;10.00;;
2538;SDS011;1280;49.760;9.664;2023-04-20T09:15:30;19.77;;;12.97;;
2538;SDS011;1280;49.760;9.664;2023-04-20T09:18:10;17.17;;;10.73;;
2538;SDS011;1280;49.760;9.664;2023-04-20T09:20:48;14.10;;;9.53;;
2538;SDS011;1280;49.760;9.664;2023-04-20T09:23:27;20.17;;;11.83;;
2538;SDS011;1280;49.760;9.664;2023-04-20T09:25:59;17.60;;;11.90;;
2538;SDS011;1280;49.760;9.664;2023-04-20T09:28:37;11.97;;;8.83;;
2538;SDS011;1280;49.760;9.664;2023-04-20T09:31:30;9.87;;;7.90;;
2538;SDS011;1280;49.760;9.664;2023-04-20T09:34:03;18.30;;;11.37;;
2538;SDS011;1280;49.760;9.664;2023-04-20T09:36:35;12.63;;;8.47;;
2538;SDS011;1280;49.760;9.664;2023-04-20T09:39:10;12.57;;;7.80;;
2538;SDS011;1280;49.760;9.664;2023-04-20T09:41:47;15.83;;;9.00;;
2538;SDS011;1280;49.760;9.664;2023-04-20T09:44:22;15.30;;;8.50;;
2538;SDS011;1280;49.760;9.664;2023-04-20T09:47:15;11.87;;;8.63;;
2538;SDS011;1280;49.760;9.664;2023-04-20T09:49:49;14.30;;;8.63;;
2538;SDS011;1280;49.760;9.664;2023-04-20T09:52:27;12.10;;;8.40;;
2538;SDS011;1280;49.760;9.664;2023-04-20T09:55:07;15.10;;;9.27;;
2538;SDS011;1280;49.760;9.664;2023-04-20T09:57:43;12.77;;;8.50;;
2538;SDS011;1280;49.760;9.664;2023-04-20T10:00:13;11.73;;;8.13;;
2538;SDS011;1280;49.760;9.664;2023-04-20T10:02:49;12.20;;;8.83;;
2538;SDS011;1280;49.760;9.664;2023-04-20T10:05:31;15.97;;;10.07;;
2538;SDS011;1280;49.760;9.664;2023-04-20T10:08:08;11.70;;;9.00;;
2538;SDS011;1280;49.760;9.664;2023-04-20T10:10:47;13.23;;;8.87;;
2538;SDS011;1280;49.760;9.664;2023-04-20T10:13:21;12.07;;;8.50;;
2538;SDS011;1280;49.760;9.664;2023-04-20T10:16:16;13.57;;;9.50;;
2538;SDS011;1280;49.760;9.664;2023-04-20T10:19:11;13.30;;;9.13;;
2538;SDS011;1280;49.760;9.664;2023-04-20T10:21:47;14.20;;;9.40;;
2538;SDS011;1280;49.760;9.664;2023-04-20T10:24:27;12.23;;;9.53;;
2538;SDS011;1280;49.760;9.664;2023-04-20T10:27:14;10.73;;;7.67;;
2538;SDS011;1280;49.760;9.664;2023-04-20T10:29:49;12.63;;;9.03;;
2538;SDS011;1280;49.760;9.664;2023-04-20T10:32:24;15.43;;;9.20;;
2538;SDS011;1280;49.760;9.664;2023-04-20T10:35:14;18.23;;;8.60;;
2538;SDS011;1280;49.760;9.664;2023-04-20T10:37:46;18.63;;;8.93;;
2538;SDS011;1280;49.760;9.664;2023-04-20T10:40:23;13.67;;;9.33;;
2538;SDS011;1280;49.760;9.664;2023-04-20T10:42:53;13.20;;;8.43;;
2538;SDS011;1280;49.760;9.664;2023-04-20T10:45:34;14.80;;;9.50;;
2538;SDS011;1280;49.760;9.664;2023-04-20T10:48:45;13.60;;;9.40;;
2538;SDS011;1280;49.760;9.664;2023-04-20T10:51:12;12.63;;;8.20;;
2538;SDS011;1280;49.760;9.664;2023-04-20T10:53:42;14.53;;;8.80;;
2538;SDS011;1280;49.760;9.664;2023-04-20T10:56:10;12.83;;;8.13;;
2538;SDS011;1280;49.760;9.664;2023-04-20T10:58:51;11.43;;;8.67;;
2538;SDS011;1280;49.760;9.664;2023-04-20T11:01:21;14.10;;;8.57;;
2538;SDS011;1280;49.760;9.664;2023-04-20T11:03:57;10.67;;;7.73;;
2538;SDS011;1280;49.760;9.664;2023-04-20T11:06:35;15.40;;;7.77;;
2538;SDS011;1280;49.760;9.664;2023-04-20T11:09:17;11.53;;;7.67;;
2538;SDS011;1280;49.760;9.664;2023-04-20T11:11:57;10.67;;;7.70;;
2538;SDS011;1280;49.760;9.664;2023-04-20T11:14:34;13.77;;;8.50;;
2538;SDS011;1280;49.760;9.664;2023-04-20T11:17:35;10.83;;;7.67;;
2538;SDS011;1280;49.760;9.664;2023-04-20T11:20:10;12.10;;;8.43;;
2538;SDS011;1280;49.760;9.664;2023-04-20T11:22:55;10.63;;;7.20;;
2538;SDS011;1280;49.760;9.664;2023-04-20T11:25:29;10.90;;;7.00;;
2538;SDS011;1280;49.760;9.664;2023-04-20T11:28:09;10.70;;;6.70;;
2538;SDS011;1280;49.760;9.664;2023-04-20T11:30:44;10.37;;;7.00;;
2538;SDS011;1280;49.760;9.664;2023-04-20T11:33:25;11.20;;;7.20;;
2538;SDS011;1280;49.760;9.664;2023-04-20T11:36:02;10.33;;;6.83;;
2538;SDS011;1280;49.760;9.664;2023-04-20T11:38:51;11.10;;;7.13;;
2538;SDS011;1280;49.760;9.664;2023-04-20T11:41:25;10.90;;;6.80;;
2538;SDS011;1280;49.760;9.664;2023-04-20T11:44:10;10.20;;;7.00;;
2538;SDS011;1280;49.760;9.664;2023-04-20T11:46:43;10.93;;;6.53;;
2538;SDS011;1280;49.760;9.664;2023-04-20T11:49:14;11.93;;;5.37;;
2538;SDS011;1280;49.760;9.664;2023-04-20T11:51:50;7.70;;;5.00;;
2538;SDS011;1280;49.760;9.664;2023-04-20T11:54:38;8.30;;;5.50;;
2538;SDS011;1280;49.760;9.664;2023-04-20T11:57:09;9.70;;;5.63;;
2538;SDS011;1280;49.760;9.664;2023-04-20T11:59:50;7.17;;;4.87;;
2538;SDS011;1280;49.760;9.664;2023-04-20T12:02:21;12.30;;;6.63;;
2538;SDS011;1280;49.760;9.664;2023-04-20T12:04:58;8.63;;;5.33;;
2538;SDS011;1280;49.760;9.664;2023-04-20T12:07:37;9.30;;;5.70;;
2538;SDS011;1280;49.760;9.664;2023-04-20T12:10:14;9.17;;;5.93;;
2538;SDS011;1280;49.760;9.664;2023-04-20T12:12:46;9.93;;;6.43;;
2538;SDS011;1280;49.760;9.664;2023-04-20T12:15:20;12.40;;;6.20;;
2538;SDS011;1280;49.760;9.664;2023-04-20T12:17:52;10.00;;;6.30;;
2538;SDS011;1280;49.760;9.664;2023-04-20T12:20:26;8.93;;;5.10;;
2538;SDS011;1280;49.760;9.664;2023-04-20T12:22:59;7.87;;;4.77;;
2538;SDS011;1280;49.760;9.664;2023-04-20T12:25:39;10.60;;;6.20;;
2538;SDS011;1280;49.760;9.664;2023-04-20T12:28:17;8.47;;;5.10;;
2538;SDS011;1280;49.760;9.664;2023-04-20T12:30:48;7.90;;;5.03;;
2538;SDS011;1280;49.760;9.664;2023-04-20T12:33:21;7.33;;;4.53;;
2538;SDS011;1280;49.760;9.664;2023-04-20T12:35:53;6.63;;;4.60;;
2538;SDS011;1280;49.760;9.664;2023-04-20T12:38:31;8.10;;;5.20;;
2538;SDS011;1280;49.760;9.664;2023-04-20T12:41:22;9.40;;;6.27;;
2538;SDS011;1280;49.760;9.664;2023-04-20T12:43:57;8.97;;;6.30;;
2538;SDS011;1280;49.760;9.664;2023-04-20T12:46:34;9.80;;;5.83;;
2538;SDS011;1280;49.760;9.664;2023-04-20T12:49:08;9.77;;;6.50;;
2538;SDS011;1280;49.760;9.664;2023-04-20T12:51:39;8.13;;;5.40;;
2538;SDS011;1280;49.760;9.664;2023-04-20T12:54:10;11.57;;;5.80;;
2538;SDS011;1280;49.760;9.664;2023-04-20T12:56:44;13.43;;;6.20;;
2538;SDS011;1280;49.760;9.664;2023-04-20T12:59:17;8.70;;;5.50;;
2538;SDS011;1280;49.760;9.664;2023-04-20T13:01:48;9.50;;;5.33;;
2538;SDS011;1280;49.760;9.664;2023-04-20T13:04:28;7.50;;;4.50;;
2538;SDS011;1280;49.760;9.664;2023-04-20T13:07:04;8.90;;;5.67;;
2538;SDS011;1280;49.760;9.664;2023-04-20T13:09:39;7.67;;;5.20;;
2538;SDS011;1280;49.760;9.664;2023-04-20T13:12:19;9.87;;;5.57;;
2538;SDS011;1280;49.760;9.664;2023-04-20T13:14:50;9.17;;;6.27;;
2538;SDS011;1280;49.760;9.664;2023-04-20T13:17:28;10.23;;;5.83;;
2538;SDS011;1280;49.760;9.664;2023-04-20T13:19:59;10.40;;;6.20;;
2538;SDS011;1280;49.760;9.664;2023-04-20T13:22:36;11.03;;;6.23;;
2538;SDS011;1280;49.760;9.664;2023-04-20T13:25:22;11.43;;;6.57;;
2538;SDS011;1280;49.760;9.664;2023-04-20T13:28:01;12.57;;;7.57;;
2538;SDS011;1280;49.760;9.664;2023-04-20T13:30:41;10.67;;;7.60;;
2538;SDS011;1280;49.760;9.664;2023-04-20T13:33:12;13.43;;;8.33;;
2538;SDS011;1280;49.760;9.664;2023-04-20T13:35:50;15.43;;;8.43;;
2538;SDS011;1280;49.760;9.664;2023-04-20T13:38:30;13.30;;;8.90;;
2538;SDS011;1280;49.760;9.664;2023-04-20T13:41:05;16.03;;;8.67;;
2538;SDS011;1280;49.760;9.664;2023-04-20T13:43:47;16.33;;;9.00;;
2538;SDS011;1280;49.760;9.664;2023-04-20T13:46:21;13.90;;;9.03;;
2538;SDS011;1280;49.760;9.664;2023-04-20T13:48:53;12.03;;;8.90;;
2538;SDS011;1280;49.760;9.664;2023-04-20T13:51:28;18.87;;;9.37;;
2538;SDS011;1280;49.760;9.664;2023-04-20T13:54:03;16.47;;;10.20;;
2538;SDS011;1280;49.760;9.664;2023-04-20T13:56:34;13.67;;;9.30;;
2538;SDS011;1280;49.760;9.664;2023-04-20T13:59:09;12.10;;;8.30;;
2538;SDS011;1280;49.760;9.664;2023-04-20T14:01:38;14.93;;;8.57;;
2538;SDS011;1280;49.760;9.664;2023-04-20T14:04:17;11.47;;;8.27;;
2538;SDS011;1280;49.760;9.664;2023-04-20T14:06:56;11.50;;;7.80;;
2538;SDS011;1280;49.760;9.664;2023-04-20T14:09:29;11.10;;;7.23;;
2538;SDS011;1280;49.760;9.664;2023-04-20T14:12:04;10.17;;;7.30;;
2538;SDS011;1280;49.760;9.664;2023-04-20T14:14:53;10.23;;;7.17;;
2538;SDS011;1280;49.760;9.664;2023-04-20T14:17:27;15.00;;;9.53;;
2538;SDS011;1280;49.760;9.664;2023-04-20T14:20:01;13.17;;;9.20;;
2538;SDS011;1280;49.760;9.664;2023-04-20T14:22:37;18.73;;;7.63;;
2538;SDS011;1280;49.760;9.664;2023-04-20T14:25:10;14.10;;;8.80;;
2538;SDS011;1280;49.760;9.664;2023-04-20T14:27:48;13.53;;;9.20;;
2538;SDS011;1280;49.760;9.664;2023-04-20T14:30:22;13.53;;;8.40;;
2538;SDS011;1280;49.760;9.664;2023-04-20T14:32:58;16.00;;;9.03;;
2538;SDS011;1280;49.760;9.664;2023-04-20T14:35:34;13.70;;;8.90;;
2538;SDS011;1280;49.760;9.664;2023-04-20T14:38:08;15.37;;;9.50;;
2538;SDS011;1280;49.760;9.664;2023-04-20T14:40:47;14.23;;;9.00;;
2538;SDS011;1280;49.760;9.664;2023-04-20T14:43:25;8.90;;;6.60;;
2538;SDS011;1280;49.760;9.664;2023-04-20T14:46:00;10.37;;;6.90;;
2538;SDS011;1280;49.760;9.664;2023-04-20T14:48:34;12.37;;;8.00;;
2538;SDS011;1280;49.760;9.664;2023-04-20T14:51:06;10.90;;;7.60;;
2538;SDS011;1280;49.760;9.664;2023-04-20T14:53:38;14.33;;;7.83;;
2538;SDS011;1280;49.760;9.664;2023-04-20T14:56:13;10.23;;;7.03;;
2538;SDS011;1280;49.760;9.664;2023-04-20T14:58:46;11.23;;;7.20;;
2538;SDS011;1280;49.760;9.664;2023-04-20T15:01:25;12.03;;;8.87;;
2538;SDS011;1280;49.760;9.664;2023-04-20T15:03:59;12.97;;;8.33;;
2538;SDS011;1280;49.760;9.664;2023-04-20T15:06:36;11.33;;;7.60;;
2538;SDS011;1280;49.760;9.664;2023-04-20T15:09:10;9.87;;;6.80;;
2538;SDS011;1280;49.760;9.664;2023-04-20T15:11:39;11.90;;;8.30;;
2538;SDS011;1280;49.760;9.664;2023-04-20T15:14:12;11.90;;;8.60;;
2538;SDS011;1280;49.760;9.664;2023-04-20T15:16:54;16.00;;;9.90;;
2538;SDS011;1280;49.760;9.664;2023-04-20T15:19:31;14.00;;;9.67;;
2538;SDS011;1280;49.760;9.664;2023-04-20T15:22:05;16.07;;;10.73;;
2538;SDS011;1280;49.760;9.664;2023-04-20T15:24:38;19.83;;;12.00;;
2538;SDS011;1280;49.760;9.664;2023-04-20T15:27:17;14.13;;;10.13;;
2538;SDS011;1280;49.760;9.664;2023-04-20T15:29:53;13.97;;;10.20;;
2538;SDS011;1280;49.760;9.664;2023-04-20T15:32:50;15.77;;;10.30;;
2538;SDS011;1280;49.760;9.664;2023-04-20T15:35:31;13.00;;;9.70;;
2538;SDS011;1280;49.760;9.664;2023-04-20T15:38:05;14.57;;;9.70;;
2538;SDS011;1280;49.760;9.664;2023-04-20T15:40:37;13.87;;;10.43;;
2538;SDS011;1280;49.760;9.664;2023-04-20T15:43:10;13.37;;;9.93;;
2538;SDS011;1280;49.760;9.664;2023-04-20T15:45:42;16.67;;;11.50;;
2538;SDS011;1280;49.760;9.664;2023-04-20T15:48:24;16.30;;;10.20;;
2538;SDS011;1280;49.760;9.664;2023-04-20T15:50:53;21.93;;;14.10;;
2538;SDS011;1280;49.760;9.664;2023-04-20T15:53:38;19.30;;;12.97;;
2538;SDS011;1280;49.760;9.664;2023-04-20T15:56:14;44.53;;;25.90;;